01:54
Airports
Links
Donate
Help keep this website running!
PayPal
Bitcoin
MATER
No METAR for LICG
Current Weather Conditions at
No weather report for LICG
TAF
TAF LICG 231700Z 2318/2403 VRB03KT 6000 SCT010 TEMPO 2401/2403 1500 BR BKN008
Forecast at LICG
18:00 23-11-17 to 03:00 24-11-17
Wind:3 Knots from 360°
Visibility:3.73 statute miles
1000SCT Scattered
TEMPO 01:00 24-11-17 to 03:00 24-11-17
BR
Visibility:0.93 statute miles
800BKN Broken